sensor_id;sensor_type;location;lat;lon;timestamp;P1;durP1;ratioP1;P2;durP2;ratioP2
6255;SDS011;3161;48.794;9.784;2023-08-17T00:00:07;5.07;;;1.97;;
6255;SDS011;3161;48.794;9.784;2023-08-17T00:02:35;2.90;;;1.50;;
6255;SDS011;3161;48.794;9.784;2023-08-17T00:05:03;6.43;;;1.97;;
6255;SDS011;3161;48.794;9.784;2023-08-17T00:07:33;2.00;;;1.80;;
6255;SDS011;3161;48.794;9.784;2023-08-17T00:10:01;5.70;;;1.70;;
6255;SDS011;3161;48.794;9.784;2023-08-17T00:12:28;5.13;;;1.70;;
6255;SDS011;3161;48.794;9.784;2023-08-17T00:14:56;5.73;;;1.50;;
6255;SDS011;3161;48.794;9.784;2023-08-17T00:17:23;1.70;;;1.60;;
6255;SDS011;3161;48.794;9.784;2023-08-17T00:19:51;2.50;;;1.90;;
6255;SDS011;3161;48.794;9.784;2023-08-17T00:22:18;8.47;;;1.87;;
6255;SDS011;3161;48.794;9.784;2023-08-17T00:24:46;3.07;;;2.10;;
6255;SDS011;3161;48.794;9.784;2023-08-17T00:27:13;8.03;;;1.70;;
6255;SDS011;3161;48.794;9.784;2023-08-17T00:29:41;7.57;;;1.90;;
6255;SDS011;3161;48.794;9.784;2023-08-17T00:32:09;4.50;;;2.17;;
6255;SDS011;3161;48.794;9.784;2023-08-17T00:34:36;14.43;;;2.17;;
6255;SDS011;3161;48.794;9.784;2023-08-17T00:37:04;2.30;;;1.87;;
6255;SDS011;3161;48.794;9.784;2023-08-17T00:39:31;4.83;;;2.00;;
6255;SDS011;3161;48.794;9.784;2023-08-17T00:41:59;2.50;;;2.23;;
6255;SDS011;3161;48.794;9.784;2023-08-17T00:44:26;4.37;;;1.60;;
6255;SDS011;3161;48.794;9.784;2023-08-17T00:46:54;2.93;;;1.80;;
6255;SDS011;3161;48.794;9.784;2023-08-17T00:49:22;8.00;;;2.33;;
6255;SDS011;3161;48.794;9.784;2023-08-17T00:51:49;13.30;;;2.30;;
6255;SDS011;3161;48.794;9.784;2023-08-17T00:54:19;5.93;;;2.40;;
6255;SDS011;3161;48.794;9.784;2023-08-17T00:56:48;7.07;;;2.43;;
6255;SDS011;3161;48.794;9.784;2023-08-17T00:59:16;3.93;;;2.30;;
6255;SDS011;3161;48.794;9.784;2023-08-17T01:01:43;2.40;;;2.23;;
6255;SDS011;3161;48.794;9.784;2023-08-17T01:04:13;2.70;;;2.50;;
6255;SDS011;3161;48.794;9.784;2023-08-17T01:06:40;20.07;;;2.60;;
6255;SDS011;3161;48.794;9.784;2023-08-17T01:09:08;3.27;;;2.00;;
6255;SDS011;3161;48.794;9.784;2023-08-17T01:11:37;2.90;;;2.70;;
6255;SDS011;3161;48.794;9.784;2023-08-17T01:14:11;7.80;;;2.33;;
6255;SDS011;3161;48.794;9.784;2023-08-17T01:16:48;2.47;;;2.27;;
6255;SDS011;3161;48.794;9.784;2023-08-17T01:19:18;2.67;;;2.30;;
6255;SDS011;3161;48.794;9.784;2023-08-17T01:21:49;10.93;;;2.77;;
6255;SDS011;3161;48.794;9.784;2023-08-17T01:24:17;2.77;;;2.57;;
6255;SDS011;3161;48.794;9.784;2023-08-17T01:26:44;9.17;;;2.63;;
6255;SDS011;3161;48.794;9.784;2023-08-17T01:29:12;6.70;;;3.10;;
6255;SDS011;3161;48.794;9.784;2023-08-17T01:32:04;8.27;;;2.70;;
6255;SDS011;3161;48.794;9.784;2023-08-17T01:34:14;3.97;;;2.40;;
6255;SDS011;3161;48.794;9.784;2023-08-17T01:36:46;3.67;;;2.63;;
6255;SDS011;3161;48.794;9.784;2023-08-17T01:39:14;3.30;;;3.10;;
6255;SDS011;3161;48.794;9.784;2023-08-17T01:41:44;3.30;;;3.10;;
6255;SDS011;3161;48.794;9.784;2023-08-17T01:44:13;9.07;;;2.93;;
6255;SDS011;3161;48.794;9.784;2023-08-17T01:46:41;12.40;;;2.90;;
6255;SDS011;3161;48.794;9.784;2023-08-17T01:49:09;17.60;;;3.23;;
6255;SDS011;3161;48.794;9.784;2023-08-17T01:51:37;14.07;;;3.00;;
6255;SDS011;3161;48.794;9.784;2023-08-17T01:54:04;16.03;;;3.20;;
6255;SDS011;3161;48.794;9.784;2023-08-17T01:56:32;3.83;;;2.97;;
6255;SDS011;3161;48.794;9.784;2023-08-17T01:59:00;8.17;;;3.10;;
6255;SDS011;3161;48.794;9.784;2023-08-17T02:01:27;3.33;;;3.03;;
6255;SDS011;3161;48.794;9.784;2023-08-17T02:03:55;16.07;;;3.63;;
6255;SDS011;3161;48.794;9.784;2023-08-17T02:06:22;11.43;;;3.60;;
6255;SDS011;3161;48.794;9.784;2023-08-17T02:08:50;8.87;;;3.27;;
6255;SDS011;3161;48.794;9.784;2023-08-17T02:11:17;4.57;;;3.50;;
6255;SDS011;3161;48.794;9.784;2023-08-17T02:13:45;11.90;;;3.70;;
6255;SDS011;3161;48.794;9.784;2023-08-17T02:16:12;5.07;;;3.40;;
6255;SDS011;3161;48.794;9.784;2023-08-17T02:18:40;7.77;;;3.23;;
6255;SDS011;3161;48.794;9.784;2023-08-17T02:21:07;5.40;;;3.17;;
6255;SDS011;3161;48.794;9.784;2023-08-17T02:23:35;6.50;;;3.47;;
6255;SDS011;3161;48.794;9.784;2023-08-17T02:26:02;8.13;;;3.00;;
6255;SDS011;3161;48.794;9.784;2023-08-17T02:28:30;8.27;;;3.27;;
6255;SDS011;3161;48.794;9.784;2023-08-17T02:30:58;15.53;;;3.63;;
6255;SDS011;3161;48.794;9.784;2023-08-17T02:33:26;9.53;;;3.40;;
6255;SDS011;3161;48.794;9.784;2023-08-17T02:35:53;23.73;;;3.30;;
6255;SDS011;3161;48.794;9.784;2023-08-17T02:38:21;13.20;;;3.50;;
6255;SDS011;3161;48.794;9.784;2023-08-17T02:40:49;5.63;;;3.07;;
6255;SDS011;3161;48.794;9.784;2023-08-17T02:43:16;8.63;;;3.40;;
6255;SDS011;3161;48.794;9.784;2023-08-17T02:45:44;16.97;;;3.60;;
6255;SDS011;3161;48.794;9.784;2023-08-17T02:48:11;15.53;;;2.80;;
6255;SDS011;3161;48.794;9.784;2023-08-17T02:50:39;5.97;;;3.20;;
6255;SDS011;3161;48.794;9.784;2023-08-17T02:53:06;3.23;;;2.57;;
6255;SDS011;3161;48.794;9.784;2023-08-17T02:55:34;11.53;;;2.50;;
6255;SDS011;3161;48.794;9.784;2023-08-17T02:58:01;7.73;;;2.47;;
6255;SDS011;3161;48.794;9.784;2023-08-17T03:00:29;18.83;;;2.70;;
6255;SDS011;3161;48.794;9.784;2023-08-17T03:02:56;12.70;;;2.30;;
6255;SDS011;3161;48.794;9.784;2023-08-17T03:05:24;12.33;;;2.07;;
6255;SDS011;3161;48.794;9.784;2023-08-17T03:07:52;10.67;;;2.10;;
6255;SDS011;3161;48.794;9.784;2023-08-17T03:10:19;17.87;;;1.83;;
6255;SDS011;3161;48.794;9.784;2023-08-17T03:12:47;3.83;;;1.70;;
6255;SDS011;3161;48.794;9.784;2023-08-17T03:15:14;8.43;;;2.00;;
6255;SDS011;3161;48.794;9.784;2023-08-17T03:17:42;14.80;;;1.70;;
6255;SDS011;3161;48.794;9.784;2023-08-17T03:20:09;6.57;;;2.00;;
6255;SDS011;3161;48.794;9.784;2023-08-17T03:22:37;12.50;;;1.73;;
6255;SDS011;3161;48.794;9.784;2023-08-17T03:25:05;8.47;;;1.73;;
6255;SDS011;3161;48.794;9.784;2023-08-17T03:27:33;11.67;;;2.23;;
6255;SDS011;3161;48.794;9.784;2023-08-17T03:30:01;10.03;;;2.13;;
6255;SDS011;3161;48.794;9.784;2023-08-17T03:32:29;1.90;;;1.57;;
6255;SDS011;3161;48.794;9.784;2023-08-17T03:34:56;6.13;;;1.70;;
6255;SDS011;3161;48.794;9.784;2023-08-17T03:37:23;8.33;;;1.50;;
6255;SDS011;3161;48.794;9.784;2023-08-17T03:39:51;6.33;;;1.20;;
6255;SDS011;3161;48.794;9.784;2023-08-17T03:42:18;4.67;;;1.57;;
6255;SDS011;3161;48.794;9.784;2023-08-17T03:44:46;5.13;;;1.80;;
6255;SDS011;3161;48.794;9.784;2023-08-17T03:47:14;24.63;;;1.97;;
6255;SDS011;3161;48.794;9.784;2023-08-17T03:49:41;16.10;;;1.83;;
6255;SDS011;3161;48.794;9.784;2023-08-17T03:52:09;19.17;;;1.90;;
6255;SDS011;3161;48.794;9.784;2023-08-17T03:54:36;12.93;;;1.60;;
6255;SDS011;3161;48.794;9.784;2023-08-17T03:57:04;13.43;;;1.80;;
6255;SDS011;3161;48.794;9.784;2023-08-17T03:59:31;7.20;;;1.93;;
6255;SDS011;3161;48.794;9.784;2023-08-17T04:01:59;10.90;;;1.67;;
6255;SDS011;3161;48.794;9.784;2023-08-17T04:04:26;3.00;;;1.77;;
6255;SDS011;3161;48.794;9.784;2023-08-17T04:06:54;13.13;;;1.80;;
6255;SDS011;3161;48.794;9.784;2023-08-17T04:09:21;8.20;;;1.93;;
6255;SDS011;3161;48.794;9.784;2023-08-17T04:11:49;10.83;;;2.07;;
6255;SDS011;3161;48.794;9.784;2023-08-17T04:14:16;20.23;;;1.90;;
6255;SDS011;3161;48.794;9.784;2023-08-17T04:16:44;21.60;;;2.03;;
6255;SDS011;3161;48.794;9.784;2023-08-17T04:19:11;11.60;;;2.30;;
6255;SDS011;3161;48.794;9.784;2023-08-17T04:21:39;12.57;;;2.20;;
6255;SDS011;3161;48.794;9.784;2023-08-17T04:24:06;14.63;;;2.20;;
6255;SDS011;3161;48.794;9.784;2023-08-17T04:26:34;12.17;;;2.37;;
6255;SDS011;3161;48.794;9.784;2023-08-17T04:29:01;8.90;;;2.00;;
6255;SDS011;3161;48.794;9.784;2023-08-17T04:31:29;10.90;;;2.63;;
6255;SDS011;3161;48.794;9.784;2023-08-17T04:33:57;6.23;;;2.00;;
6255;SDS011;3161;48.794;9.784;2023-08-17T04:36:24;3.53;;;2.33;;
6255;SDS011;3161;48.794;9.784;2023-08-17T04:38:52;3.70;;;2.27;;
6255;SDS011;3161;48.794;9.784;2023-08-17T04:41:19;7.17;;;2.60;;
6255;SDS011;3161;48.794;9.784;2023-08-17T04:43:47;5.73;;;2.10;;
6255;SDS011;3161;48.794;9.784;2023-08-17T04:46:15;2.70;;;2.03;;
6255;SDS011;3161;48.794;9.784;2023-08-17T04:48:42;10.53;;;7.33;;
6255;SDS011;3161;48.794;9.784;2023-08-17T04:51:10;3.93;;;2.73;;
6255;SDS011;3161;48.794;9.784;2023-08-17T04:53:38;8.13;;;2.00;;
6255;SDS011;3161;48.794;9.784;2023-08-17T04:56:05;8.27;;;2.50;;
6255;SDS011;3161;48.794;9.784;2023-08-17T04:58:33;16.23;;;2.77;;
6255;SDS011;3161;48.794;9.784;2023-08-17T05:01:00;13.47;;;2.33;;
6255;SDS011;3161;48.794;9.784;2023-08-17T05:03:28;12.43;;;2.70;;
6255;SDS011;3161;48.794;9.784;2023-08-17T05:05:56;4.97;;;2.40;;
6255;SDS011;3161;48.794;9.784;2023-08-17T05:08:24;6.00;;;2.53;;
6255;SDS011;3161;48.794;9.784;2023-08-17T05:10:52;9.33;;;2.83;;
6255;SDS011;3161;48.794;9.784;2023-08-17T05:13:19;9.97;;;2.63;;
6255;SDS011;3161;48.794;9.784;2023-08-17T05:15:47;6.00;;;2.77;;
6255;SDS011;3161;48.794;9.784;2023-08-17T05:18:14;15.30;;;2.70;;
6255;SDS011;3161;48.794;9.784;2023-08-17T05:20:42;3.17;;;2.30;;
6255;SDS011;3161;48.794;9.784;2023-08-17T05:23:09;5.07;;;2.00;;
6255;SDS011;3161;48.794;9.784;2023-08-17T05:25:37;14.27;;;2.53;;
6255;SDS011;3161;48.794;9.784;2023-08-17T05:28:04;2.63;;;2.20;;
6255;SDS011;3161;48.794;9.784;2023-08-17T05:30:32;12.87;;;2.67;;
6255;SDS011;3161;48.794;9.784;2023-08-17T05:33:00;6.17;;;2.70;;
6255;SDS011;3161;48.794;9.784;2023-08-17T05:35:27;3.60;;;2.30;;
6255;SDS011;3161;48.794;9.784;2023-08-17T05:37:55;17.00;;;2.57;;
6255;SDS011;3161;48.794;9.784;2023-08-17T05:40:22;4.23;;;2.90;;
6255;SDS011;3161;48.794;9.784;2023-08-17T05:42:50;11.97;;;2.60;;
6255;SDS011;3161;48.794;9.784;2023-08-17T05:45:18;4.30;;;2.30;;
6255;SDS011;3161;48.794;9.784;2023-08-17T05:47:45;8.07;;;3.10;;
6255;SDS011;3161;48.794;9.784;2023-08-17T05:50:13;9.37;;;2.90;;
6255;SDS011;3161;48.794;9.784;2023-08-17T05:52:40;8.50;;;2.97;;
6255;SDS011;3161;48.794;9.784;2023-08-17T05:55:08;9.70;;;3.40;;
6255;SDS011;3161;48.794;9.784;2023-08-17T05:57:36;6.63;;;3.07;;
6255;SDS011;3161;48.794;9.784;2023-08-17T06:00:04;10.80;;;3.43;;
6255;SDS011;3161;48.794;9.784;2023-08-17T06:02:34;6.37;;;3.67;;
6255;SDS011;3161;48.794;9.784;2023-08-17T06:05:01;4.77;;;4.27;;
6255;SDS011;3161;48.794;9.784;2023-08-17T06:07:29;13.77;;;3.37;;
6255;SDS011;3161;48.794;9.784;2023-08-17T06:09:56;7.90;;;2.60;;
6255;SDS011;3161;48.794;9.784;2023-08-17T06:12:24;5.23;;;3.13;;
6255;SDS011;3161;48.794;9.784;2023-08-17T06:14:51;5.77;;;2.70;;
6255;SDS011;3161;48.794;9.784;2023-08-17T06:17:19;11.13;;;2.70;;
6255;SDS011;3161;48.794;9.784;2023-08-17T06:19:46;3.60;;;2.83;;
6255;SDS011;3161;48.794;9.784;2023-08-17T06:22:13;6.03;;;2.93;;
6255;SDS011;3161;48.794;9.784;2023-08-17T06:24:41;2.57;;;2.37;;
6255;SDS011;3161;48.794;9.784;2023-08-17T06:27:08;3.63;;;3.33;;
6255;SDS011;3161;48.794;9.784;2023-08-17T06:29:37;4.90;;;3.47;;
6255;SDS011;3161;48.794;9.784;2023-08-17T06:32:05;5.47;;;2.83;;
6255;SDS011;3161;48.794;9.784;2023-08-17T06:34:33;4.03;;;2.80;;
6255;SDS011;3161;48.794;9.784;2023-08-17T06:37:02;4.03;;;1.90;;
6255;SDS011;3161;48.794;9.784;2023-08-17T06:39:31;2.63;;;2.43;;
6255;SDS011;3161;48.794;9.784;2023-08-17T06:41:59;3.30;;;2.07;;
6255;SDS011;3161;48.794;9.784;2023-08-17T06:44:26;2.33;;;2.13;;
6255;SDS011;3161;48.794;9.784;2023-08-17T06:46:55;2.80;;;2.60;;
6255;SDS011;3161;48.794;9.784;2023-08-17T06:49:22;2.20;;;2.10;;
6255;SDS011;3161;48.794;9.784;2023-08-17T06:51:51;3.27;;;2.20;;
6255;SDS011;3161;48.794;9.784;2023-08-17T06:54:18;2.37;;;2.27;;
6255;SDS011;3161;48.794;9.784;2023-08-17T06:56:46;2.30;;;2.20;;
6255;SDS011;3161;48.794;9.784;2023-08-17T06:59:13;2.30;;;2.13;;
6255;SDS011;3161;48.794;9.784;2023-08-17T07:01:41;5.20;;;2.57;;
6255;SDS011;3161;48.794;9.784;2023-08-17T07:04:08;2.30;;;2.10;;
6255;SDS011;3161;48.794;9.784;2023-08-17T07:06:36;3.77;;;2.20;;
6255;SDS011;3161;48.794;9.784;2023-08-17T07:09:03;2.50;;;2.20;;
6255;SDS011;3161;48.794;9.784;2023-08-17T07:11:31;2.47;;;2.30;;
6255;SDS011;3161;48.794;9.784;2023-08-17T07:13:59;5.17;;;2.23;;
6255;SDS011;3161;48.794;9.784;2023-08-17T07:16:26;2.23;;;2.07;;
6255;SDS011;3161;48.794;9.784;2023-08-17T07:18:54;3.47;;;1.90;;
6255;SDS011;3161;48.794;9.784;2023-08-17T07:21:21;5.92;;;2.33;;
6255;SDS011;3161;48.794;9.784;2023-08-17T07:23:49;2.27;;;2.17;;
6255;SDS011;3161;48.794;9.784;2023-08-17T07:26:17;1.95;;;1.85;;
6255;SDS011;3161;48.794;9.784;2023-08-17T07:28:46;3.67;;;2.20;;
6255;SDS011;3161;48.794;9.784;2023-08-17T07:31:14;2.10;;;1.92;;
6255;SDS011;3161;48.794;9.784;2023-08-17T07:33:42;3.75;;;2.10;;
6255;SDS011;3161;48.794;9.784;2023-08-17T07:36:09;2.17;;;1.98;;
6255;SDS011;3161;48.794;9.784;2023-08-17T07:38:37;2.27;;;2.17;;
6255;SDS011;3161;48.794;9.784;2023-08-17T07:41:04;3.33;;;2.35;;
6255;SDS011;3161;48.794;9.784;2023-08-17T07:43:32;5.42;;;2.27;;
6255;SDS011;3161;48.794;9.784;2023-08-17T07:45:59;2.92;;;1.98;;
6255;SDS011;3161;48.794;9.784;2023-08-17T07:48:27;3.02;;;2.52;;
6255;SDS011;3161;48.794;9.784;2023-08-17T07:50:56;6.03;;;2.25;;
6255;SDS011;3161;48.794;9.784;2023-08-17T07:53:23;3.65;;;2.45;;
6255;SDS011;3161;48.794;9.784;2023-08-17T07:55:51;2.15;;;1.92;;
6255;SDS011;3161;48.794;9.784;2023-08-17T07:58:19;2.70;;;2.40;;
6255;SDS011;3161;48.794;9.784;2023-08-17T08:00:46;2.75;;;2.52;;
6255;SDS011;3161;48.794;9.784;2023-08-17T08:03:14;5.55;;;2.25;;
6255;SDS011;3161;48.794;9.784;2023-08-17T08:05:42;2.55;;;2.08;;
6255;SDS011;3161;48.794;9.784;2023-08-17T08:08:09;3.52;;;2.62;;
6255;SDS011;3161;48.794;9.784;2023-08-17T08:10:37;5.30;;;2.80;;
6255;SDS011;3161;48.794;9.784;2023-08-17T08:13:04;3.08;;;2.77;;
6255;SDS011;3161;48.794;9.784;2023-08-17T08:15:33;4.97;;;2.45;;
6255;SDS011;3161;48.794;9.784;2023-08-17T08:18:00;3.12;;;2.30;;
6255;SDS011;3161;48.794;9.784;2023-08-17T08:20:28;3.20;;;2.67;;
6255;SDS011;3161;48.794;9.784;2023-08-17T08:22:56;5.60;;;2.77;;
6255;SDS011;3161;48.794;9.784;2023-08-17T08:25:23;3.45;;;2.55;;
6255;SDS011;3161;48.794;9.784;2023-08-17T08:27:51;4.00;;;2.80;;
6255;SDS011;3161;48.794;9.784;2023-08-17T08:30:18;4.45;;;2.67;;
6255;SDS011;3161;48.794;9.784;2023-08-17T08:32:46;2.95;;;2.70;;
6255;SDS011;3161;48.794;9.784;2023-08-17T08:35:13;5.70;;;2.58;;
6255;SDS011;3161;48.794;9.784;2023-08-17T08:37:41;5.53;;;2.85;;
6255;SDS011;3161;48.794;9.784;2023-08-17T08:40:10;4.95;;;2.45;;
6255;SDS011;3161;48.794;9.784;2023-08-17T08:42:39;3.22;;;2.80;;
6255;SDS011;3161;48.794;9.784;2023-08-17T08:45:07;4.42;;;2.45;;
6255;SDS011;3161;48.794;9.784;2023-08-17T08:47:40;3.12;;;2.60;;
6255;SDS011;3161;48.794;9.784;2023-08-17T08:50:05;2.95;;;2.55;;
6255;SDS011;3161;48.794;9.784;2023-08-17T08:52:40;5.28;;;2.50;;
6255;SDS011;3161;48.794;9.784;2023-08-17T08:55:11;3.55;;;3.08;;
6255;SDS011;3161;48.794;9.784;2023-08-17T08:57:41;3.70;;;2.80;;
6255;SDS011;3161;48.794;9.784;2023-08-17T09:00:11;2.60;;;2.25;;
6255;SDS011;3161;48.794;9.784;2023-08-17T09:02:39;4.35;;;2.58;;
6255;SDS011;3161;48.794;9.784;2023-08-17T09:05:09;3.02;;;2.62;;
6255;SDS011;3161;48.794;9.784;2023-08-17T09:07:37;3.37;;;3.08;;
6255;SDS011;3161;48.794;9.784;2023-08-17T09:10:05;3.22;;;2.92;;
6255;SDS011;3161;48.794;9.784;2023-08-17T09:12:34;7.33;;;2.87;;
6255;SDS011;3161;48.794;9.784;2023-08-17T09:15:03;5.42;;;3.00;;
6255;SDS011;3161;48.794;9.784;2023-08-17T09:17:31;3.92;;;3.12;;
6255;SDS011;3161;48.794;9.784;2023-08-17T09:20:02;6.45;;;3.00;;
6255;SDS011;3161;48.794;9.784;2023-08-17T09:25:09;3.90;;;3.17;;
6255;SDS011;3161;48.794;9.784;2023-08-17T09:27:37;6.00;;;3.02;;
6255;SDS011;3161;48.794;9.784;2023-08-17T09:30:08;2.72;;;2.52;;
6255;SDS011;3161;48.794;9.784;2023-08-17T09:32:37;3.40;;;3.17;;
6255;SDS011;3161;48.794;9.784;2023-08-17T09:35:05;2.95;;;2.45;;
6255;SDS011;3161;48.794;9.784;2023-08-17T09:37:33;6.62;;;2.90;;
6255;SDS011;3161;48.794;9.784;2023-08-17T09:40:01;4.97;;;3.17;;
6255;SDS011;3161;48.794;9.784;2023-08-17T09:42:28;3.55;;;2.95;;
6255;SDS011;3161;48.794;9.784;2023-08-17T09:44:57;5.83;;;3.17;;
6255;SDS011;3161;48.794;9.784;2023-08-17T09:47:27;3.58;;;2.95;;
6255;SDS011;3161;48.794;9.784;2023-08-17T09:49:55;3.10;;;2.80;;
6255;SDS011;3161;48.794;9.784;2023-08-17T09:52:23;4.08;;;3.00;;
6255;SDS011;3161;48.794;9.784;2023-08-17T09:54:51;4.17;;;3.08;;
6255;SDS011;3161;48.794;9.784;2023-08-17T09:57:20;3.65;;;3.02;;
6255;SDS011;3161;48.794;9.784;2023-08-17T09:59:48;3.92;;;3.55;;
6255;SDS011;3161;48.794;9.784;2023-08-17T10:02:17;4.30;;;3.37;;
6255;SDS011;3161;48.794;9.784;2023-08-17T10:04:52;4.12;;;3.35;;
6255;SDS011;3161;48.794;9.784;2023-08-17T10:07:21;3.00;;;2.80;;
6255;SDS011;3161;48.794;9.784;2023-08-17T10:09:54;6.85;;;3.45;;
6255;SDS011;3161;48.794;9.784;2023-08-17T10:12:25;3.58;;;3.27;;
6255;SDS011;3161;48.794;9.784;2023-08-17T10:14:55;3.12;;;2.92;;
6255;SDS011;3161;48.794;9.784;2023-08-17T10:17:27;3.45;;;3.17;;
6255;SDS011;3161;48.794;9.784;2023-08-17T10:19:58;4.28;;;3.98;;
6255;SDS011;3161;48.794;9.784;2023-08-17T10:25:12;3.20;;;2.90;;
6255;SDS011;3161;48.794;9.784;2023-08-17T10:27:41;3.58;;;3.27;;
6255;SDS011;3161;48.794;9.784;2023-08-17T10:30:10;3.98;;;3.50;;
6255;SDS011;3161;48.794;9.784;2023-08-17T10:32:38;4.50;;;3.70;;
6255;SDS011;3161;48.794;9.784;2023-08-17T10:35:09;4.00;;;3.65;;
6255;SDS011;3161;48.794;9.784;2023-08-17T10:37:36;5.42;;;3.15;;
6255;SDS011;3161;48.794;9.784;2023-08-17T10:40:05;3.77;;;2.80;;
6255;SDS011;3161;48.794;9.784;2023-08-17T10:42:34;7.90;;;3.58;;
6255;SDS011;3161;48.794;9.784;2023-08-17T10:47:50;7.22;;;3.15;;
6255;SDS011;3161;48.794;9.784;2023-08-17T10:50:22;3.60;;;3.30;;
6255;SDS011;3161;48.794;9.784;2023-08-17T10:52:53;4.03;;;3.08;;
6255;SDS011;3161;48.794;9.784;2023-08-17T10:55:36;5.50;;;3.52;;
6255;SDS011;3161;48.794;9.784;2023-08-17T10:58:08;3.58;;;3.27;;
6255;SDS011;3161;48.794;9.784;2023-08-17T11:00:38;7.75;;;3.62;;
6255;SDS011;3161;48.794;9.784;2023-08-17T11:03:09;3.85;;;3.55;;
6255;SDS011;3161;48.794;9.784;2023-08-17T11:05:42;3.80;;;3.50;;
6255;SDS011;3161;48.794;9.784;2023-08-17T11:08:21;5.17;;;3.72;;
6255;SDS011;3161;48.794;9.784;2023-08-17T11:13:45;4.12;;;3.80;;
6255;SDS011;3161;48.794;9.784;2023-08-17T11:16:12;3.22;;;3.02;;
6255;SDS011;3161;48.794;9.784;2023-08-17T11:18:41;5.55;;;3.25;;
6255;SDS011;3161;48.794;9.784;2023-08-17T11:21:10;4.15;;;3.75;;
6255;SDS011;3161;48.794;9.784;2023-08-17T11:23:38;3.83;;;3.52;;
6255;SDS011;3161;48.794;9.784;2023-08-17T11:26:06;3.60;;;3.30;;
6255;SDS011;3161;48.794;9.784;2023-08-17T11:28:35;3.40;;;3.12;;
6255;SDS011;3161;48.794;9.784;2023-08-17T11:31:05;6.67;;;3.70;;
6255;SDS011;3161;48.794;9.784;2023-08-17T11:33:35;4.15;;;3.85;;
6255;SDS011;3161;48.794;9.784;2023-08-17T11:36:04;3.65;;;3.27;;
6255;SDS011;3161;48.794;9.784;2023-08-17T11:38:34;3.72;;;3.27;;
6255;SDS011;3161;48.794;9.784;2023-08-17T11:41:04;3.15;;;2.95;;
6255;SDS011;3161;48.794;9.784;2023-08-17T11:43:33;3.52;;;3.33;;
6255;SDS011;3161;48.794;9.784;2023-08-17T11:46:01;3.58;;;3.30;;
6255;SDS011;3161;48.794;9.784;2023-08-17T11:48:29;4.58;;;3.10;;
6255;SDS011;3161;48.794;9.784;2023-08-17T11:50:57;3.67;;;3.27;;
6255;SDS011;3161;48.794;9.784;2023-08-17T11:53:25;5.83;;;3.15;;
6255;SDS011;3161;48.794;9.784;2023-08-17T11:55:55;3.45;;;3.22;;
6255;SDS011;3161;48.794;9.784;2023-08-17T12:01:10;3.95;;;3.58;;
6255;SDS011;3161;48.794;9.784;2023-08-17T12:03:39;4.50;;;3.17;;
6255;SDS011;3161;48.794;9.784;2023-08-17T12:06:08;4.92;;;3.22;;
6255;SDS011;3161;48.794;9.784;2023-08-17T12:08:36;7.05;;;3.37;;
6255;SDS011;3161;48.794;9.784;2023-08-17T12:11:03;5.15;;;4.05;;
6255;SDS011;3161;48.794;9.784;2023-08-17T12:13:34;4.70;;;3.10;;
6255;SDS011;3161;48.794;9.784;2023-08-17T12:16:02;4.15;;;3.00;;
6255;SDS011;3161;48.794;9.784;2023-08-17T12:18:33;4.20;;;3.80;;
6255;SDS011;3161;48.794;9.784;2023-08-17T12:21:03;6.92;;;3.87;;
6255;SDS011;3161;48.794;9.784;2023-08-17T12:23:32;6.08;;;4.20;;
6255;SDS011;3161;48.794;9.784;2023-08-17T12:25:59;4.25;;;3.35;;
6255;SDS011;3161;48.794;9.784;2023-08-17T12:28:27;3.35;;;3.15;;
6255;SDS011;3161;48.794;9.784;2023-08-17T12:30:59;3.50;;;3.20;;
6255;SDS011;3161;48.794;9.784;2023-08-17T12:33:27;3.72;;;3.42;;
6255;SDS011;3161;48.794;9.784;2023-08-17T12:35:55;4.83;;;3.42;;
6255;SDS011;3161;48.794;9.784;2023-08-17T12:38:23;4.92;;;3.35;;
6255;SDS011;3161;48.794;9.784;2023-08-17T12:40:51;4.17;;;3.30;;
6255;SDS011;3161;48.794;9.784;2023-08-17T12:43:19;2.80;;;2.58;;
6255;SDS011;3161;48.794;9.784;2023-08-17T12:45:46;3.33;;;3.02;;
6255;SDS011;3161;48.794;9.784;2023-08-17T12:48:14;3.37;;;3.00;;
6255;SDS011;3161;48.794;9.784;2023-08-17T12:50:41;6.65;;;2.92;;
6255;SDS011;3161;48.794;9.784;2023-08-17T12:53:09;3.27;;;3.08;;
6255;SDS011;3161;48.794;9.784;2023-08-17T12:55:37;2.85;;;2.65;;
6255;SDS011;3161;48.794;9.784;2023-08-17T12:58:07;6.95;;;2.95;;
6255;SDS011;3161;48.794;9.784;2023-08-17T13:00:36;3.12;;;2.83;;
6255;SDS011;3161;48.794;9.784;2023-08-17T13:03:04;3.58;;;3.27;;
6255;SDS011;3161;48.794;9.784;2023-08-17T13:05:32;4.58;;;3.30;;
6255;SDS011;3161;48.794;9.784;2023-08-17T13:07:59;3.50;;;3.20;;
6255;SDS011;3161;48.794;9.784;2023-08-17T13:10:27;3.45;;;3.15;;
6255;SDS011;3161;48.794;9.784;2023-08-17T13:12:55;3.75;;;3.08;;
6255;SDS011;3161;48.794;9.784;2023-08-17T13:15:24;4.78;;;3.05;;
6255;SDS011;3161;48.794;9.784;2023-08-17T13:17:52;5.10;;;3.10;;
6255;SDS011;3161;48.794;9.784;2023-08-17T13:20:20;3.90;;;3.27;;
6255;SDS011;3161;48.794;9.784;2023-08-17T13:22:47;4.28;;;2.80;;
6255;SDS011;3161;48.794;9.784;2023-08-17T13:25:15;6.78;;;3.77;;
6255;SDS011;3161;48.794;9.784;2023-08-17T13:27:43;3.58;;;3.22;;
6255;SDS011;3161;48.794;9.784;2023-08-17T13:30:11;11.88;;;3.40;;
6255;SDS011;3161;48.794;9.784;2023-08-17T13:32:38;5.22;;;3.40;;
6255;SDS011;3161;48.794;9.784;2023-08-17T13:35:07;5.92;;;3.33;;
6255;SDS011;3161;48.794;9.784;2023-08-17T13:37:36;3.98;;;3.47;;
6255;SDS011;3161;48.794;9.784;2023-08-17T13:40:04;3.58;;;3.27;;
6255;SDS011;3161;48.794;9.784;2023-08-17T13:42:33;5.87;;;3.42;;
6255;SDS011;3161;48.794;9.784;2023-08-17T13:45:02;13.98;;;4.58;;
6255;SDS011;3161;48.794;9.784;2023-08-17T13:47:30;5.08;;;3.90;;
6255;SDS011;3161;48.794;9.784;2023-08-17T13:49:58;4.85;;;3.87;;
6255;SDS011;3161;48.794;9.784;2023-08-17T13:52:25;6.20;;;3.95;;
6255;SDS011;3161;48.794;9.784;2023-08-17T13:54:53;4.70;;;4.20;;
6255;SDS011;3161;48.794;9.784;2023-08-17T13:57:20;8.80;;;5.35;;
6255;SDS011;3161;48.794;9.784;2023-08-17T13:59:48;12.70;;;4.92;;
6255;SDS011;3161;48.794;9.784;2023-08-17T14:02:15;4.67;;;4.28;;
6255;SDS011;3161;48.794;9.784;2023-08-17T14:04:43;4.78;;;4.37;;
6255;SDS011;3161;48.794;9.784;2023-08-17T14:07:10;9.60;;;4.20;;
6255;SDS011;3161;48.794;9.784;2023-08-17T14:09:38;12.18;;;4.37;;
6255;SDS011;3161;48.794;9.784;2023-08-17T14:12:05;4.97;;;4.03;;
6255;SDS011;3161;48.794;9.784;2023-08-17T14:14:33;7.62;;;4.00;;
6255;SDS011;3161;48.794;9.784;2023-08-17T14:17:01;4.05;;;3.75;;
6255;SDS011;3161;48.794;9.784;2023-08-17T14:19:28;8.50;;;4.42;;
6255;SDS011;3161;48.794;9.784;2023-08-17T14:21:57;8.23;;;4.47;;
6255;SDS011;3161;48.794;9.784;2023-08-17T14:24:26;4.78;;;4.28;;
6255;SDS011;3161;48.794;9.784;2023-08-17T14:26:54;4.85;;;4.05;;
6255;SDS011;3161;48.794;9.784;2023-08-17T14:29:24;5.83;;;4.85;;
6255;SDS011;3161;48.794;9.784;2023-08-17T14:31:51;11.73;;;4.30;;
6255;SDS011;3161;48.794;9.784;2023-08-17T14:34:18;6.10;;;5.22;;
6255;SDS011;3161;48.794;9.784;2023-08-17T14:36:47;8.10;;;4.78;;
6255;SDS011;3161;48.794;9.784;2023-08-17T14:39:14;6.95;;;4.85;;
6255;SDS011;3161;48.794;9.784;2023-08-17T14:41:42;7.15;;;5.42;;
6255;SDS011;3161;48.794;9.784;2023-08-17T14:44:10;5.42;;;4.62;;
6255;SDS011;3161;48.794;9.784;2023-08-17T14:46:37;5.12;;;4.62;;
6255;SDS011;3161;48.794;9.784;2023-08-17T14:49:05;7.78;;;4.70;;
6255;SDS011;3161;48.794;9.784;2023-08-17T14:51:36;10.05;;;5.05;;
6255;SDS011;3161;48.794;9.784;2023-08-17T14:54:05;7.37;;;5.40;;
6255;SDS011;3161;48.794;9.784;2023-08-17T14:56:34;5.37;;;4.87;;
6255;SDS011;3161;48.794;9.784;2023-08-17T14:59:02;6.03;;;4.92;;
6255;SDS011;3161;48.794;9.784;2023-08-17T15:01:29;6.05;;;5.45;;
6255;SDS011;3161;48.794;9.784;2023-08-17T15:03:57;5.65;;;4.95;;
6255;SDS011;3161;48.794;9.784;2023-08-17T15:06:25;8.20;;;5.55;;
6255;SDS011;3161;48.794;9.784;2023-08-17T15:08:52;8.33;;;5.47;;
6255;SDS011;3161;48.794;9.784;2023-08-17T15:11:20;6.40;;;5.10;;
6255;SDS011;3161;48.794;9.784;2023-08-17T15:13:47;6.12;;;5.55;;
6255;SDS011;3161;48.794;9.784;2023-08-17T15:16:15;6.62;;;5.80;;
6255;SDS011;3161;48.794;9.784;2023-08-17T15:18:42;13.50;;;5.70;;
6255;SDS011;3161;48.794;9.784;2023-08-17T15:21:10;6.33;;;5.67;;
6255;SDS011;3161;48.794;9.784;2023-08-17T15:23:37;6.03;;;5.53;;
6255;SDS011;3161;48.794;9.784;2023-08-17T15:26:05;7.35;;;5.30;;
6255;SDS011;3161;48.794;9.784;2023-08-17T15:28:32;7.50;;;5.75;;
6255;SDS011;3161;48.794;9.784;2023-08-17T15:31:01;5.85;;;5.35;;